North Avondale, Colorado
Current Conditions -  °F | °C
As of 11:53 PM on Sunday 23 Nov 2014 (Local Time) from KPUB Reporting Station
Clear Clear  
Wind Chill: -10°   Ceiling: Unl
Heat Index: -6°   Visibility: 10mi
Dew Point: -7°   Wind: 6mph
Humidity: 89%   Direction: 280°W
Pressure: 29.93"   Gusts: NA
Location:  38.0104°N, 104.392°W
Report Text: KPUB 240653Z 28005KT 10SM CLR M06/M07 A2993 RMK AO2 SLP150 I1000 T10561072 401111056
Loading
Personal Weather Stations






























Interactive Weather Map New forecast layout! Learn more

10-Day Weather Forecast

Advertisements
Track Severe Weather on mobile